Aeroporto :
LOGIN :

Iscrizione | Disclaimer

   EN    FR    IT 

 










Sommario :    VFR   VFR Marginale   IFR   IFR Intensivo   IFR Molto Intensivo
Visibilità : 
Base nubi : 
>= 8 km
>= 3000ft
5 / 8 km
1000 / 3000 ft
1500m / 5 km
500 / 1000 ft
800 / 1500m
200 / 500 ft
< 800m
< 200 ft
Simboli :   Temporali  Nebbia  Neve Forte  Precipitazioni Forti  Vento > 20 kt
SIGMETs :   Varie  Temporali  Ghiacco  Turbolenza  Onda orograficha  Ceneri Vulcaniche






- Altitudine del aeroporto : 622 ft
- Codice IATA : BRS


EGGD - Bristol Int.

ULTIMO METAR :
  • 241120Z AUTO 24016KT 6000 -RA OVC005/// //////TCU 10/09 Q1007 RERA

METARs OBSOLETI :
  • 241050Z AUTO 24016KT 4400 RA BKN004/// OVC008/// //////CB 10/09 Q1008 RERA
  • 241020Z AUTO 23015KT 3000 +RA BKN004/// OVC007/// //////CB 10/09 Q1008
  • 240950Z AUTO 23015KT 3900 RA OVC003/// //////TCU 10/09 Q1008 RERA
  • 240920Z AUTO 22016G28KT 4900 RA OVC003/// //////TCU 09/09 Q1008
  • 240850Z AUTO 22015KT 4100 RA OVC004/// //////TCU 09/09 Q1008 RERA REDZ

TAF TAF EGGD
Valido dal 24 a 12 ore il 25 a 12 ore UTC


241106Z 2412/2512 23020G30KT 4000 RA BKN004
BECMG 2412/2415 26020G33KT 9999 NSW FEW025
BECMG 2417/2420 26014KT
PROB30
TEMPO 2420/2506 7000 SHRA BKN014
TEMPO 2506/2512 7000 SHRA BKN014
PROB30
TEMPO 2506/2512 27017G27KT 4000 +SHRAGS BKN007 BKN016CB
ATIS : +44 1275 473 666



MetMap, La meteo Aeronautica in un colpo d'occhio ! - Copyright ORBIFLY Dicembre 2007 - Disclaimer

ORBIFLY MET'MAP TEAM :

Programmazione e sviluppo : Alexandra Zaïnal
Concezione : Baudouin d'Aumeries
Aiuto per la programmazione : Marc-Olivier Méhu
Supporto tecnico e logistico : Manuel Goepfert
Aiuto per la traduzione : Arnaldo La Scala

Contatto : metmap@orbifly.com




FONTI E CREDITI :

   NOAA